sensor_id;sensor_type;location;lat;lon;timestamp;temperature;humidity
73833;SHT30;62179;48.444;-4.464;2023-02-28T19:20:50;8.46;69.49
73833;SHT30;62179;48.444;-4.464;2023-02-28T19:23:39;8.50;69.67
73833;SHT30;62179;48.444;-4.464;2023-02-28T19:26:11;8.50;69.89
73833;SHT30;62179;48.444;-4.464;2023-02-28T19:28:37;8.54;70.03
73833;SHT30;62179;48.444;-4.464;2023-02-28T19:31:04;8.52;69.98
73833;SHT30;62179;48.444;-4.464;2023-02-28T19:33:30;8.54;70.51
73833;SHT30;62179;48.444;-4.464;2023-02-28T19:36:00;8.53;70.34
73833;SHT30;62179;48.444;-4.464;2023-02-28T19:38:25;8.56;70.19
73833;SHT30;62179;48.444;-4.464;2023-02-28T19:41:02;8.57;69.99
73833;SHT30;62179;48.444;-4.464;2023-02-28T19:43:28;8.56;70.26
73833;SHT30;62179;48.444;-4.464;2023-02-28T19:45:54;8.57;70.23
73833;SHT30;62179;48.444;-4.464;2023-02-28T19:48:26;8.57;70.21
73833;SHT30;62179;48.444;-4.464;2023-02-28T19:51:06;8.53;69.90
73833;SHT30;62179;48.444;-4.464;2023-02-28T19:53:35;8.49;69.58
73833;SHT30;62179;48.444;-4.464;2023-02-28T19:56:01;8.43;69.78
73833;SHT30;62179;48.444;-4.464;2023-02-28T19:58:29;8.37;69.35
73833;SHT30;62179;48.444;-4.464;2023-02-28T20:00:58;8.35;69.61
73833;SHT30;62179;48.444;-4.464;2023-02-28T20:03:25;8.35;69.42
73833;SHT30;62179;48.444;-4.464;2023-02-28T20:06:02;8.29;69.38
73833;SHT30;62179;48.444;-4.464;2023-02-28T20:08:28;8.26;69.42
73833;SHT30;62179;48.444;-4.464;2023-02-28T20:10:54;8.22;69.70
73833;SHT30;62179;48.444;-4.464;2023-02-28T20:13:20;8.21;69.67
73833;SHT30;62179;48.444;-4.464;2023-02-28T20:15:45;8.19;69.75
73833;SHT30;62179;48.444;-4.464;2023-02-28T20:18:10;8.19;69.80
73833;SHT30;62179;48.444;-4.464;2023-02-28T20:20:38;8.19;69.95
73833;SHT30;62179;48.444;-4.464;2023-02-28T20:23:09;8.16;69.74
73833;SHT30;62179;48.444;-4.464;2023-02-28T20:25:38;8.17;69.68
73833;SHT30;62179;48.444;-4.464;2023-02-28T20:28:04;8.17;69.66
73833;SHT30;62179;48.444;-4.464;2023-02-28T20:30:29;8.17;69.74
73833;SHT30;62179;48.444;-4.464;2023-02-28T20:32:54;8.21;69.89
73833;SHT30;62179;48.444;-4.464;2023-02-28T20:35:20;8.24;69.96
73833;SHT30;62179;48.444;-4.464;2023-02-28T20:37:53;8.25;69.97
73833;SHT30;62179;48.444;-4.464;2023-02-28T20:40:19;8.26;70.21
73833;SHT30;62179;48.444;-4.464;2023-02-28T20:42:44;8.29;70.09
73833;SHT30;62179;48.444;-4.464;2023-02-28T20:45:10;8.35;70.06
73833;SHT30;62179;48.444;-4.464;2023-02-28T20:47:36;8.35;70.08
73833;SHT30;62179;48.444;-4.464;2023-02-28T20:50:11;8.36;70.07
73833;SHT30;62179;48.444;-4.464;2023-02-28T20:52:37;8.39;70.15
73833;SHT30;62179;48.444;-4.464;2023-02-28T20:55:03;8.46;69.99
73833;SHT30;62179;48.444;-4.464;2023-02-28T20:57:29;8.47;69.90
73833;SHT30;62179;48.444;-4.464;2023-02-28T20:59:55;8.49;69.71
73833;SHT30;62179;48.444;-4.464;2023-02-28T21:02:20;8.52;69.71
73833;SHT30;62179;48.444;-4.464;2023-02-28T21:04:47;8.53;69.50
73833;SHT30;62179;48.444;-4.464;2023-02-28T21:07:12;8.52;69.58
73833;SHT30;62179;48.444;-4.464;2023-02-28T21:09:38;8.54;69.32
73833;SHT30;62179;48.444;-4.464;2023-02-28T21:12:03;8.57;69.22
73833;SHT30;62179;48.444;-4.464;2023-02-28T21:14:29;8.60;69.18
73833;SHT30;62179;48.444;-4.464;2023-02-28T21:16:59;8.60;69.23
73833;SHT30;62179;48.444;-4.464;2023-02-28T21:19:24;8.60;69.02
73833;SHT30;62179;48.444;-4.464;2023-02-28T21:21:50;8.63;69.24
73833;SHT30;62179;48.444;-4.464;2023-02-28T21:24:17;8.67;69.30
73833;SHT30;62179;48.444;-4.464;2023-02-28T21:26:44;8.68;69.50
73833;SHT30;62179;48.444;-4.464;2023-02-28T21:29:11;8.70;69.20
73833;SHT30;62179;48.444;-4.464;2023-02-28T21:31:37;8.71;69.62
73833;SHT30;62179;48.444;-4.464;2023-02-28T21:34:07;8.73;69.93
73833;SHT30;62179;48.444;-4.464;2023-02-28T21:36:39;8.73;71.50
73833;SHT30;62179;48.444;-4.464;2023-02-28T21:39:22;8.70;71.68
73833;SHT30;62179;48.444;-4.464;2023-02-28T21:41:50;8.64;72.65
73833;SHT30;62179;48.444;-4.464;2023-02-28T21:44:16;8.60;72.90
73833;SHT30;62179;48.444;-4.464;2023-02-28T21:46:48;8.57;73.96
73833;SHT30;62179;48.444;-4.464;2023-02-28T21:49:14;8.53;73.30
73833;SHT30;62179;48.444;-4.464;2023-02-28T21:51:41;8.47;73.46
73833;SHT30;62179;48.444;-4.464;2023-02-28T21:54:07;8.49;73.93
73833;SHT30;62179;48.444;-4.464;2023-02-28T21:56:34;8.46;73.39
73833;SHT30;62179;48.444;-4.464;2023-02-28T21:59:00;8.43;74.15
73833;SHT30;62179;48.444;-4.464;2023-02-28T22:01:34;8.47;74.28
73833;SHT30;62179;48.444;-4.464;2023-02-28T22:04:03;8.42;74.81
73833;SHT30;62179;48.444;-4.464;2023-02-28T22:06:34;8.43;74.50
73833;SHT30;62179;48.444;-4.464;2023-02-28T22:09:02;8.40;74.42
73833;SHT30;62179;48.444;-4.464;2023-02-28T22:11:30;8.42;74.37
73833;SHT30;62179;48.444;-4.464;2023-02-28T22:13:57;8.43;74.26
73833;SHT30;62179;48.444;-4.464;2023-02-28T22:16:25;8.45;74.48
73833;SHT30;62179;48.444;-4.464;2023-02-28T22:18:51;8.43;74.65
73833;SHT30;62179;48.444;-4.464;2023-02-28T22:21:18;8.46;74.02
73833;SHT30;62179;48.444;-4.464;2023-02-28T22:23:45;8.47;73.87
73833;SHT30;62179;48.444;-4.464;2023-02-28T22:26:17;8.49;73.65
73833;SHT30;62179;48.444;-4.464;2023-02-28T22:28:43;8.50;73.74
73833;SHT30;62179;48.444;-4.464;2023-02-28T22:31:19;8.52;74.63
